Time;durP1;ratioP1;P1;durP2;ratioP2;P2;SDS_P1;SDS_P2;PMS_P1;PMS_P2;Temp;Humidity;BMP_temperature;BMP_pressure;BME280_temperature;BME280_humidity;BME280_pressure;Samples;Min_cycle;Max_cycle;Signal;HPM_P1;HPM_P2
2021/10/05 00:01:24;;;;;;;9.13;6.20;;;;;;;17.79;100.00;95999.34;5022004;28;20084;-54
2021/10/05 00:03:52;;;;;;;8.52;6.28;;;;;;;17.59;100.00;95995.78;5023944;28;20599;-51
2021/10/05 00:06:21;;;;;;;8.77;6.68;;;;;;;17.78;100.00;95989.69;5025504;28;20097;-51
2021/10/05 00:08:49;;;;;;;8.45;6.50;;;;;;;17.81;100.00;95980.47;5028193;28;20081;-46
2021/10/05 00:11:18;;;;;;;7.88;6.47;;;;;;;17.78;100.00;95979.03;5026695;28;20104;-54
2021/10/05 00:13:48;;;;;;;7.50;6.03;;;;;;;17.91;100.00;95972.91;5028688;28;20045;-50
2021/10/05 00:16:16;;;;;;;7.72;6.15;;;;;;;18.00;100.00;95966.38;5029519;28;20073;-56
2021/10/05 00:18:47;;;;;;;7.82;6.65;;;;;;;18.14;100.00;95951.19;5025714;28;20057;-51
2021/10/05 00:21:15;;;;;;;7.85;6.70;;;;;;;18.29;100.00;95948.31;5027523;28;20083;-47
2021/10/05 00:23:43;;;;;;;7.72;6.93;;;;;;;18.33;100.00;95957.53;5030872;28;20076;-47
2021/10/05 00:26:12;;;;;;;7.88;6.82;;;;;;;18.29;100.00;95953.66;5030331;28;20073;-52
2021/10/05 00:28:41;;;;;;;8.40;6.60;;;;;;;18.15;100.00;95944.81;5027515;28;20077;-53
2021/10/05 00:31:11;;;;;;;7.38;6.28;;;;;;;18.29;100.00;95947.50;5006734;28;20112;-48
2021/10/05 00:33:39;;;;;;;8.98;6.40;;;;;;;18.20;100.00;95942.38;5022955;28;20072;-51
2021/10/05 00:36:09;;;;;;;9.52;6.60;;;;;;;18.12;100.00;95931.06;5030890;28;20077;-54
2021/10/05 00:38:37;;;;;;;7.72;6.38;;;;;;;17.82;100.00;95936.75;5028295;28;20057;-51
2021/10/05 00:41:06;;;;;;;8.52;7.13;;;;;;;17.96;100.00;95932.25;5029349;28;20103;-53
2021/10/05 00:43:34;;;;;;;8.85;6.68;;;;;;;17.76;100.00;95927.75;5030752;28;20487;-53
2021/10/05 00:46:02;;;;;;;8.90;6.47;;;;;;;17.93;100.00;95927.38;5028567;28;20072;-52
2021/10/05 00:48:32;;;;;;;10.85;7.00;;;;;;;18.08;100.00;95927.97;5022944;28;20531;-49
2021/10/05 00:51:01;;;;;;;9.20;7.18;;;;;;;17.82;100.00;95930.63;5027707;28;20072;-52
2021/10/05 00:53:29;;;;;;;10.60;7.25;;;;;;;17.67;100.00;95922.78;5028982;28;20064;-46
2021/10/05 00:55:58;;;;;;;9.32;6.78;;;;;;;17.43;100.00;95930.28;5024787;28;20088;-51
2021/10/05 00:58:26;;;;;;;8.07;6.80;;;;;;;17.60;100.00;95922.75;5030029;28;20076;-50
2021/10/05 01:00:55;;;;;;;9.27;6.97;;;;;;;17.76;100.00;95906.41;5026385;28;20076;-49
2021/10/05 01:03:23;;;;;;;8.93;7.55;;;;;;;17.89;100.00;95894.09;5028319;28;20617;-46
2021/10/05 01:05:53;;;;;;;11.52;7.25;;;;;;;17.44;100.00;95904.44;5027239;28;20076;-45
2021/10/05 01:08:22;;;;;;;8.43;6.35;;;;;;;17.20;100.00;95906.63;5023757;28;20064;-47
2021/10/05 01:10:50;;;;;;;9.73;6.50;;;;;;;17.21;100.00;95896.81;5027830;28;20080;-52
2021/10/05 01:13:19;;;;;;;9.43;7.20;;;;;;;17.26;100.00;95897.03;5028984;28;20081;-52
2021/10/05 01:15:47;;;;;;;10.20;7.72;;;;;;;17.37;100.00;95904.44;5027654;28;20068;-51
2021/10/05 01:18:16;;;;;;;10.55;7.32;;;;;;;17.59;100.00;95894.44;5027884;28;20073;-48
2021/10/05 01:21:00;;;;;;;9.98;7.32;;;;;;;17.29;100.00;95900.09;5026798;28;20077;-52
2021/10/05 01:23:29;;;;;;;9.40;7.68;;;;;;;17.64;100.00;95873.31;5025140;28;20077;-50
2021/10/05 01:25:58;;;;;;;11.75;7.47;;;;;;;17.68;100.00;95881.72;5029498;28;20098;-55
2021/10/05 01:28:26;;;;;;;10.23;7.60;;;;;;;17.97;100.00;95877.91;5027749;28;20490;-52
2021/10/05 01:30:55;;;;;;;10.93;7.40;;;;;;;17.64;100.00;95886.66;5025567;28;20523;-46
2021/10/05 01:33:25;;;;;;;11.10;7.88;;;;;;;17.83;100.00;95874.41;5024005;28;20070;-49
2021/10/05 01:35:54;;;;;;;9.98;7.78;;;;;;;17.96;100.00;95868.25;5029644;28;20061;-46
2021/10/05 01:38:23;;;;;;;11.35;8.18;;;;;;;18.08;100.00;95879.94;5025235;28;20652;-53
2021/10/05 01:40:52;;;;;;;11.75;8.18;;;;;;;17.78;100.00;95866.19;5027667;28;20080;-52
2021/10/05 01:43:21;;;;;;;10.25;7.88;;;;;;;17.89;100.00;95860.22;5028358;28;20546;-52
2021/10/05 01:45:52;;;;;;;10.45;8.32;;;;;;;17.28;100.00;95871.81;5027626;28;20061;-47
2021/10/05 01:48:20;;;;;;;9.25;7.82;;;;;;;17.50;100.00;95861.00;5027138;28;20065;-52
2021/10/05 01:50:49;;;;;;;10.10;7.93;;;;;;;16.84;100.00;95859.78;5027219;28;20077;-51
2021/10/05 01:53:17;;;;;;;10.60;8.13;;;;;;;16.82;100.00;95859.13;5024702;28;20078;-51
2021/10/05 01:55:47;;;;;;;13.10;8.07;;;;;;;16.91;100.00;95845.69;5029036;28;20096;-47
2021/10/05 01:58:15;;;;;;;10.75;8.60;;;;;;;17.08;100.00;95838.97;5028892;28;20084;-50
2021/10/05 02:00:44;;;;;;;11.48;8.93;;;;;;;17.48;100.00;95823.91;5024705;28;20072;-50
2021/10/05 02:03:14;;;;;;;13.32;9.55;;;;;;;17.85;100.00;95818.19;5025804;28;20076;-51
2021/10/05 02:05:42;;;;;;;11.25;8.98;;;;;;;17.71;100.00;95818.16;5032133;28;20527;-53
2021/10/05 02:08:11;;;;;;;13.05;9.88;;;;;;;17.56;100.00;95810.34;5029179;28;20068;-49
2021/10/05 02:10:40;;;;;;;12.52;10.27;;;;;;;17.31;100.00;95809.31;5046058;28;20452;-48
2021/10/05 02:13:10;;;;;;;13.65;10.27;;;;;;;17.47;100.00;95811.56;5032347;28;20073;-53
2021/10/05 02:15:39;;;;;;;13.55;10.02;;;;;;;17.45;100.00;95815.50;5031765;28;20037;-54
2021/10/05 02:18:07;;;;;;;13.63;10.38;;;;;;;17.37;100.00;95821.00;5037074;28;20073;-57
2021/10/05 02:20:36;;;;;;;13.13;10.90;;;;;;;17.86;100.00;95818.00;5028096;28;20070;-46
2021/10/05 02:23:04;;;;;;;13.07;10.48;;;;;;;17.59;100.00;95816.31;5034353;28;20065;-50
2021/10/05 02:25:32;;;;;;;14.07;10.65;;;;;;;18.11;100.00;95807.50;5037859;28;20531;-51
2021/10/05 02:28:01;;;;;;;13.88;10.80;;;;;;;18.09;100.00;95801.53;5032836;28;20064;-51
2021/10/05 02:30:31;;;;;;;12.82;10.48;;;;;;;18.15;100.00;95800.72;5029913;28;20068;-53
2021/10/05 02:33:00;;;;;;;15.10;10.63;;;;;;;17.71;100.00;95801.34;5037839;28;20534;-47
2021/10/05 02:35:28;;;;;;;12.25;10.23;;;;;;;17.45;100.00;95799.50;5036963;28;20083;-50
2021/10/05 02:37:57;;;;;;;12.40;9.93;;;;;;;17.42;100.00;95792.72;5034951;28;20541;-46
2021/10/05 02:40:25;;;;;;;13.85;10.50;;;;;;;17.42;100.00;95797.22;5036676;28;20092;-51
2021/10/05 02:42:54;;;;;;;14.98;10.45;;;;;;;17.74;100.00;95788.41;5041314;28;20061;-55
2021/10/05 02:45:22;;;;;;;14.48;11.18;;;;;;;17.85;100.00;95780.84;5033055;28;20077;-53
2021/10/05 02:47:52;;;;;;;14.23;11.80;;;;;;;17.62;100.00;95774.06;5031863;28;20065;-46
2021/10/05 02:50:21;;;;;;;15.43;11.30;;;;;;;17.81;100.00;95774.28;5035840;28;20446;-53
2021/10/05 02:52:49;;;;;;;14.65;10.80;;;;;;;17.80;100.00;95757.47;5033128;28;20064;-47
2021/10/05 02:55:18;;;;;;;12.50;10.43;;;;;;;17.52;100.00;95747.00;5030577;28;20560;-56
2021/10/05 02:57:46;;;;;;;15.77;11.55;;;;;;;17.54;100.00;95742.25;5030925;28;20441;-52
2021/10/05 03:00:15;;;;;;;15.02;11.23;;;;;;;17.21;100.00;95729.75;5031408;28;20325;-50
2021/10/05 03:02:44;;;;;;;16.00;11.57;;;;;;;17.23;100.00;95733.03;5029109;28;20076;-51
2021/10/05 03:05:15;;;;;;;16.02;11.43;;;;;;;17.32;100.00;95729.16;5029557;28;20083;-58
2021/10/05 03:07:45;;;;;;;13.93;11.20;;;;;;;17.14;100.00;95730.78;5035649;28;20551;-55
2021/10/05 03:10:13;;;;;;;16.58;11.68;;;;;;;16.78;100.00;95727.44;5032014;28;20478;-51
2021/10/05 03:12:41;;;;;;;16.02;12.73;;;;;;;16.79;100.00;95725.59;5027539;28;20088;-50
2021/10/05 03:15:10;;;;;;;15.73;12.05;;;;;;;16.87;100.00;95728.06;5029702;28;20068;-51
2021/10/05 03:17:38;;;;;;;16.40;12.77;;;;;;;17.25;100.00;95717.66;5029292;28;20069;-51
2021/10/05 03:20:09;;;;;;;16.75;13.05;;;;;;;17.10;100.00;95698.38;5027057;28;20064;-53
2021/10/05 03:22:39;;;;;;;19.40;13.55;;;;;;;17.24;100.00;95692.06;5028386;28;20085;-58
2021/10/05 03:25:09;;;;;;;20.58;14.45;;;;;;;17.47;100.00;95688.94;5030810;28;20065;-53
2021/10/05 03:27:37;;;;;;;21.75;14.30;;;;;;;17.28;100.00;95684.47;5028441;28;20072;-50
2021/10/05 03:30:07;;;;;;;19.20;13.88;;;;;;;17.46;100.00;95692.66;5024176;28;20073;-55
2021/10/05 03:32:35;;;;;;;20.50;14.27;;;;;;;17.08;100.00;95698.59;5024440;28;20064;-47
2021/10/05 03:35:04;;;;;;;17.40;13.32;;;;;;;17.06;100.00;95715.81;5030072;28;20065;-53
2021/10/05 03:37:33;;;;;;;18.65;13.63;;;;;;;17.05;100.00;95725.63;5028014;28;20477;-53
2021/10/05 03:40:03;;;;;;;18.20;13.32;;;;;;;16.42;100.00;95732.22;5029276;28;20135;-49
2021/10/05 03:42:33;;;;;;;;;;;;;;;16.22;100.00;95735.59;5026397;28;20469;-57
2021/10/05 03:45:01;;;;;;;16.77;12.57;;;;;;;16.55;100.00;95734.91;5028916;28;19987;-48
2021/10/05 03:47:31;;;;;;;20.13;14.45;;;;;;;16.61;100.00;95726.13;5024887;28;20076;-55
2021/10/05 03:49:59;;;;;;;18.67;13.93;;;;;;;16.72;100.00;95714.88;5027885;28;20076;-52
2021/10/05 03:52:27;;;;;;;21.25;14.13;;;;;;;16.67;100.00;95700.56;5025988;28;20080;-59
2021/10/05 03:54:56;;;;;;;20.05;14.52;;;;;;;16.74;100.00;95688.91;5031272;28;20057;-55
2021/10/05 03:57:29;;;;;;;18.55;14.05;;;;;;;16.77;100.00;95687.72;5031292;28;20075;-54
2021/10/05 03:59:57;;;;;;;20.98;15.15;;;;;;;17.16;100.00;95691.44;5039683;28;20071;-56
2021/10/05 04:02:25;;;;;;;18.55;14.70;;;;;;;17.00;100.00;95682.00;5029422;28;20136;-53
2021/10/05 04:04:54;;;;;;;21.67;15.13;;;;;;;17.29;100.00;95676.25;5032300;28;20068;-58
2021/10/05 04:07:22;;;;;;;22.85;15.35;;;;;;;17.07;100.00;95680.16;5040508;28;20096;-56
2021/10/05 04:09:51;;;;;;;19.23;14.48;;;;;;;17.08;100.00;95687.94;5035898;28;20060;-51
2021/10/05 04:12:19;;;;;;;22.13;14.88;;;;;;;17.13;100.00;95682.00;5032060;28;20562;-54
2021/10/05 04:14:50;;;;;;;20.85;15.10;;;;;;;16.29;100.00;95685.09;5031011;28;20064;-57
2021/10/05 04:17:18;;;;;;;;;;;;;;;16.52;100.00;95684.75;5036879;28;20076;-49
2021/10/05 04:19:46;;;;;;;20.13;14.38;;;;;;;16.38;100.00;95692.69;5034272;28;19967;-48
2021/10/05 04:22:15;;;;;;;18.50;13.63;;;;;;;16.46;100.00;95696.19;5034093;28;20455;-53
2021/10/05 04:24:43;;;;;;;20.33;14.50;;;;;;;16.26;100.00;95691.63;5033298;28;20080;-53
2021/10/05 04:27:12;;;;;;;18.60;13.82;;;;;;;16.15;100.00;95684.22;5038775;28;20107;-50
2021/10/05 04:29:42;;;;;;;20.63;14.65;;;;;;;16.11;100.00;95697.09;5034028;28;20056;-54
2021/10/05 04:32:12;;;;;;;21.30;14.10;;;;;;;16.26;100.00;95702.25;5030894;28;20072;-53
2021/10/05 04:34:41;;;;;;;19.70;14.43;;;;;;;15.93;100.00;95711.91;5031724;28;20081;-54
2021/10/05 04:37:09;;;;;;;21.73;14.38;;;;;;;16.12;100.00;95705.88;5030192;28;20080;-49
2021/10/05 04:39:38;;;;;;;20.50;14.60;;;;;;;16.11;100.00;95704.25;5031230;28;20069;-51
2021/10/05 04:42:06;;;;;;;22.80;14.57;;;;;;;16.40;100.00;95702.31;5040759;28;20065;-56
2021/10/05 04:44:35;;;;;;;21.60;15.00;;;;;;;16.06;100.00;95712.81;5032024;28;20589;-51
2021/10/05 04:47:04;;;;;;;22.23;15.07;;;;;;;15.95;100.00;95702.72;5031264;28;20064;-56
2021/10/05 04:49:34;;;;;;;23.02;14.93;;;;;;;16.02;100.00;95721.38;5035514;28;20551;-53
2021/10/05 04:52:03;;;;;;;23.05;16.20;;;;;;;16.46;100.00;95728.13;5001252;28;20066;-51
2021/10/05 04:54:32;;;;;;;21.80;15.25;;;;;;;16.74;100.00;95720.03;5017990;28;20072;-56
2021/10/05 04:57:00;;;;;;;23.65;16.10;;;;;;;16.92;100.00;95714.97;5034457;28;20451;-54
2021/10/05 04:59:31;;;;;;;21.02;15.13;;;;;;;16.81;100.00;95719.03;5035755;28;20068;-52
2021/10/05 05:01:59;;;;;;;22.27;15.43;;;;;;;16.51;100.00;95723.03;5036351;28;20068;-54
2021/10/05 05:04:29;;;;;;;20.33;14.55;;;;;;;17.56;100.00;95716.22;5029981;28;20092;-52
2021/10/05 05:06:59;;;;;;;22.67;15.38;;;;;;;17.37;100.00;95712.53;5030473;28;20061;-52
2021/10/05 05:09:27;;;;;;;20.20;14.85;;;;;;;17.26;100.00;95711.31;5040547;28;20076;-53
2021/10/05 05:11:56;;;;;;;22.25;15.57;;;;;;;17.47;100.00;95714.78;5028379;28;20061;-54
2021/10/05 05:14:24;;;;;;;21.17;14.68;;;;;;;17.69;100.00;95708.22;5039321;28;20083;-52
2021/10/05 05:16:53;;;;;;;21.40;15.00;;;;;;;17.47;100.00;95698.81;5020182;28;20104;-58
2021/10/05 05:19:21;;;;;;;23.23;15.68;;;;;;;17.91;100.00;95695.47;5043552;28;20095;-57
2021/10/05 05:21:50;;;;;;;19.10;13.90;;;;;;;17.86;100.00;95686.47;5031003;28;20057;-56
2021/10/05 05:24:20;;;;;;;21.35;14.55;;;;;;;16.68;100.00;95703.00;5029801;28;20057;-56
2021/10/05 05:26:48;;;;;;;25.63;15.20;;;;;;;16.59;100.00;95696.25;5035209;28;20069;-56
2021/10/05 05:29:17;;;;;;;21.45;14.18;;;;;;;16.31;100.00;95694.50;5039998;28;20061;-57
2021/10/05 05:31:45;;;;;;;20.58;13.73;;;;;;;16.51;100.00;95691.06;5027687;28;20487;-54
2021/10/05 05:34:14;;;;;;;20.48;13.52;;;;;;;16.24;100.00;95703.47;5037022;28;20049;-57
2021/10/05 05:36:42;;;;;;;20.98;14.38;;;;;;;16.13;100.00;95707.50;5036944;28;20595;-58
2021/10/05 05:39:11;;;;;;;22.20;13.98;;;;;;;15.99;100.00;95721.78;5039196;28;20072;-55
2021/10/05 05:41:41;;;;;;;21.20;14.50;;;;;;;16.23;100.00;95726.59;5030848;28;20072;-56
2021/10/05 05:44:09;;;;;;;23.52;13.82;;;;;;;15.89;100.00;95725.59;5034604;28;20068;-57
2021/10/05 05:46:38;;;;;;;20.35;14.43;;;;;;;16.16;100.00;95728.41;5033671;28;20547;-54
2021/10/05 05:49:06;;;;;;;20.58;13.30;;;;;;;15.67;100.00;95734.66;5033081;28;20076;-53
2021/10/05 05:51:36;;;;;;;19.15;13.23;;;;;;;15.26;100.00;95729.22;5037311;28;20080;-53
2021/10/05 05:54:04;;;;;;;23.08;15.00;;;;;;;16.15;100.00;95729.44;5031178;28;20068;-55
2021/10/05 05:56:33;;;;;;;18.80;12.05;;;;;;;15.56;100.00;95732.53;5035173;28;20073;-55
2021/10/05 05:59:03;;;;;;;23.92;14.95;;;;;;;16.05;100.00;95739.59;5034041;28;20102;-57
2021/10/05 06:01:31;;;;;;;23.90;14.23;;;;;;;15.22;100.00;95736.75;5044910;28;20553;-58
2021/10/05 06:04:01;;;;;;;24.13;14.35;;;;;;;15.68;100.00;95732.81;5040430;28;20068;-56
2021/10/05 06:06:30;;;;;;;23.55;14.65;;;;;;;15.66;100.00;95735.69;5038295;28;20064;-56
2021/10/05 06:09:00;;;;;;;21.17;13.80;;;;;;;15.61;100.00;95743.38;5034028;28;20061;-55
2021/10/05 06:11:31;;;;;;;20.50;11.77;;;;;;;15.75;100.00;95733.69;5043473;28;20069;-55
2021/10/05 06:14:00;;;;;;;20.60;13.40;;;;;;;16.05;100.00;95748.41;5041200;28;20082;-46
2021/10/05 06:16:30;;;;;;;23.73;13.32;;;;;;;16.04;100.00;95740.63;5039989;28;20057;-46
2021/10/05 06:18:59;;;;;;;20.88;12.77;;;;;;;16.06;100.00;95738.59;5030244;28;20082;-50
2021/10/05 06:21:27;;;;;;;17.85;11.18;;;;;;;15.57;100.00;95739.47;5038774;28;20088;-49
2021/10/05 06:23:55;;;;;;;19.20;12.45;;;;;;;15.27;100.00;95734.31;5035978;28;20071;-50
2021/10/05 06:26:24;;;;;;;22.17;13.68;;;;;;;16.29;100.00;95730.31;5036451;28;20516;-48
2021/10/05 06:28:52;;;;;;;21.50;13.10;;;;;;;16.11;100.00;95736.97;5040565;28;20087;-49
2021/10/05 06:31:21;;;;;;;21.65;13.23;;;;;;;16.33;100.00;95726.22;5035970;28;20089;-56
2021/10/05 06:33:50;;;;;;;18.23;10.75;;;;;;;15.54;100.00;95727.38;5030412;28;20084;-51
2021/10/05 06:36:19;;;;;;;19.50;11.82;;;;;;;15.77;100.00;95723.69;5033999;28;20149;-52
2021/10/05 06:38:47;;;;;;;20.92;11.73;;;;;;;16.21;100.00;95733.97;5040172;28;20076;-51
2021/10/05 06:41:16;;;;;;;15.82;10.40;;;;;;;15.73;100.00;95733.09;5032778;28;20451;-54
2021/10/05 06:43:44;;;;;;;18.48;11.60;;;;;;;16.44;100.00;95738.97;5027045;28;20076;-58
2021/10/05 06:46:12;;;;;;;17.92;10.38;;;;;;;16.73;100.00;95737.84;5034480;28;20085;-49
2021/10/05 06:48:41;;;;;;;17.17;11.45;;;;;;;16.76;100.00;95744.66;5032331;28;20068;-49
2021/10/05 06:51:11;;;;;;;18.17;10.73;;;;;;;16.38;100.00;95745.09;5027541;28;20531;-47
2021/10/05 06:53:40;;;;;;;19.23;11.20;;;;;;;16.27;100.00;95756.28;5036726;28;20073;-54
2021/10/05 06:56:30;;;;;;;15.05;10.75;;;;;;;16.63;100.00;95771.19;5034798;28;20649;-51
2021/10/05 06:58:58;;;;;;;15.85;10.45;;;;;;;16.43;100.00;95776.44;5032765;28;20096;-60
2021/10/05 07:01:27;;;;;;;17.45;10.70;;;;;;;16.81;100.00;95790.13;5035445;28;20535;-49
2021/10/05 07:03:55;;;;;;;15.80;10.55;;;;;;;16.74;100.00;95792.75;5042839;28;20070;-50
2021/10/05 07:06:44;;;;;;;17.05;10.48;;;;;;;16.94;100.00;95787.50;5040987;28;20853;-56
2021/10/05 07:09:13;;;;;;;19.13;10.77;;;;;;;15.79;100.00;95777.47;5034280;28;20081;-50
2021/10/05 07:11:41;;;;;;;17.17;10.82;;;;;;;16.08;100.00;95776.44;5034222;28;20061;-48
2021/10/05 07:14:10;;;;;;;18.05;10.63;;;;;;;16.12;100.00;95769.72;5035648;28;20064;-47
2021/10/05 07:16:38;;;;;;;22.00;12.15;;;;;;;15.62;100.00;95771.59;5036543;28;20087;-52
2021/10/05 07:19:07;;;;;;;21.17;11.10;;;;;;;15.99;100.00;95782.94;5035012;28;20684;-46
2021/10/05 07:21:44;;;;;;;24.30;12.65;;;;;;;16.04;100.00;95793.81;5029887;28;20069;-49
2021/10/05 07:24:12;;;;;;;21.63;13.20;;;;;;;16.61;100.00;95795.34;5039811;28;20088;-49
2021/10/05 07:26:41;;;;;;;22.75;13.25;;;;;;;16.57;100.00;95794.09;5028581;28;20068;-46
2021/10/05 07:29:09;;;;;;;22.00;12.80;;;;;;;16.66;100.00;95779.59;5037824;28;20053;-46
2021/10/05 07:31:38;;;;;;;20.50;11.95;;;;;;;16.71;100.00;95771.81;5042910;28;20107;-54
2021/10/05 07:34:08;;;;;;;;;;;;;;;16.20;100.00;95763.41;5035213;28;20298;-50
2021/10/05 07:36:36;;;;;;;19.45;11.68;;;;;;;16.56;100.00;95761.34;5029835;28;19964;-52
2021/10/05 07:39:08;;;;;;;18.67;11.73;;;;;;;16.74;100.00;95770.59;5031723;28;20198;-54
2021/10/05 07:41:36;;;;;;;23.42;12.65;;;;;;;17.02;100.00;95767.84;5035013;28;20466;-54
2021/10/05 07:44:05;;;;;;;18.67;12.13;;;;;;;16.74;100.00;95765.28;5030163;28;20068;-55
2021/10/05 07:46:33;;;;;;;20.23;11.57;;;;;;;17.35;100.00;95762.56;5033673;28;20076;-47
2021/10/05 07:49:02;;;;;;;17.27;10.70;;;;;;;16.98;100.00;95769.28;5044758;28;20061;-52
2021/10/05 07:51:30;;;;;;;16.02;9.95;;;;;;;16.41;100.00;95781.13;5033859;28;20098;-53
2021/10/05 07:53:59;;;;;;;20.52;10.68;;;;;;;16.76;100.00;95760.63;5035831;28;20077;-55
2021/10/05 07:56:29;;;;;;;14.30;9.38;;;;;;;16.54;100.00;95763.38;5039145;28;20448;-55
2021/10/05 07:58:58;;;;;;;16.42;9.80;;;;;;;16.82;100.00;95771.28;5036928;28;20089;-50
2021/10/05 08:01:27;;;;;;;14.05;9.18;;;;;;;16.88;100.00;95779.50;5035937;28;20088;-50
2021/10/05 08:03:55;;;;;;;12.95;7.93;;;;;;;16.75;100.00;95773.09;5029026;28;20617;-54
2021/10/05 08:06:24;;;;;;;11.85;8.13;;;;;;;16.57;100.00;95760.31;5035383;28;20080;-46
2021/10/05 08:08:52;;;;;;;13.57;8.07;;;;;;;16.63;100.00;95756.03;5028943;28;20069;-54
2021/10/05 08:11:23;;;;;;;10.18;6.70;;;;;;;16.75;100.00;95750.97;5032166;28;20545;-50
2021/10/05 08:13:53;;;;;;;13.25;8.70;;;;;;;17.38;100.00;95743.50;5034003;28;20477;-46
2021/10/05 08:16:30;;;;;;;12.93;8.45;;;;;;;17.60;100.00;95745.97;5038495;28;20504;-46
2021/10/05 08:18:58;;;;;;;13.43;8.50;;;;;;;17.40;100.00;95744.13;5029719;28;20072;-54
2021/10/05 08:21:27;;;;;;;12.57;8.27;;;;;;;17.79;100.00;95740.66;5032087;28;20531;-46
2021/10/05 08:23:56;;;;;;;12.85;8.60;;;;;;;18.22;100.00;95736.66;5034707;28;20523;-47
2021/10/05 08:26:24;;;;;;;13.32;8.85;;;;;;;18.18;100.00;95744.25;5042025;28;20084;-57
2021/10/05 08:28:54;;;;;;;13.73;8.30;;;;;;;16.89;100.00;95757.16;5031361;28;20092;-50
2021/10/05 08:31:23;;;;;;;10.27;7.32;;;;;;;16.88;100.00;95767.00;5028512;28;20495;-53
2021/10/05 08:33:51;;;;;;;10.48;7.00;;;;;;;17.14;100.00;95784.88;5035378;28;20069;-46
2021/10/05 08:36:21;;;;;;;10.73;7.72;;;;;;;17.36;100.00;95795.38;5033260;28;20064;-48
2021/10/05 08:38:49;;;;;;;11.57;7.63;;;;;;;17.05;100.00;95792.25;5032841;28;20065;-56
2021/10/05 08:41:17;;;;;;;10.95;7.07;;;;;;;17.06;100.00;95787.72;5036733;28;20069;-54
2021/10/05 08:43:46;;;;;;;9.82;6.50;;;;;;;16.77;100.00;95771.06;5030123;28;20081;-48
2021/10/05 08:46:16;;;;;;;9.77;6.40;;;;;;;17.52;100.00;95761.16;5034596;28;20084;-48
2021/10/05 08:48:46;;;;;;;8.02;5.78;;;;;;;16.84;100.00;95782.56;5030047;28;20070;-57
2021/10/05 08:51:14;;;;;;;8.82;5.55;;;;;;;16.77;100.00;95786.22;5032142;28;20453;-56
2021/10/05 08:53:43;;;;;;;10.07;6.00;;;;;;;17.35;100.00;95773.22;5028862;28;20081;-51
2021/10/05 08:56:11;;;;;;;9.65;6.00;;;;;;;17.19;100.00;95781.59;5032377;28;20069;-50
2021/10/05 08:58:43;;;;;;;9.07;6.22;;;;;;;17.48;100.00;95775.91;5034935;28;20080;-46
2021/10/05 09:01:13;;;;;;;12.15;6.88;;;;;;;17.95;100.00;95776.72;5042531;28;20079;-50
2021/10/05 09:03:49;;;;;;;9.75;5.88;;;;;;;17.81;100.00;95776.94;5032503;28;20072;-54
2021/10/05 09:06:18;;;;;;;8.77;6.10;;;;;;;17.21;100.00;95780.38;5029069;28;20481;-54
2021/10/05 09:08:47;;;;;;;9.40;6.53;;;;;;;17.82;100.00;95770.59;5041592;28;20531;-55
2021/10/05 09:11:18;;;;;;;9.55;6.60;;;;;;;17.93;100.00;95769.97;5031867;28;20098;-50
2021/10/05 09:13:48;;;;;;;;;;;;;;;16.82;100.00;95771.28;5030405;28;20076;-52
2021/10/05 09:16:21;;;;;;;9.07;6.35;;;;;;;17.27;100.00;95752.94;5039116;28;19983;-52
2021/10/05 09:19:00;;;;;;;11.10;6.90;;;;;;;17.61;100.00;95745.75;5035793;28;20061;-47
2021/10/05 09:21:30;;;;;;;11.35;7.70;;;;;;;18.15;100.00;95751.88;5029370;28;20080;-53
2021/10/05 09:24:00;;;;;;;;;;;;;;;18.43;100.00;95752.38;5031885;28;20072;-48
2021/10/05 09:26:40;;;;;;;12.00;6.50;;;;;;;18.17;100.00;95744.44;5029664;28;19956;-50
2021/10/05 09:29:14;;;;;;;11.23;6.95;;;;;;;18.63;100.00;95762.16;5028519;28;20065;-54
2021/10/05 09:31:55;;;;;;;12.07;7.47;;;;;;;17.61;100.00;95764.41;5026701;28;20081;-50
2021/10/05 09:34:40;;;;;;;9.93;6.60;;;;;;;17.96;100.00;95767.72;5037008;28;20048;-52
2021/10/05 09:37:11;;;;;;;13.13;7.95;;;;;;;18.04;100.00;95782.69;5027687;28;20427;-53
2021/10/05 09:39:43;;;;;;;12.15;7.85;;;;;;;17.76;100.00;95797.06;5041792;28;20079;-53
2021/10/05 09:42:19;;;;;;;12.95;7.97;;;;;;;18.07;100.00;95792.94;5027269;28;20073;-52
2021/10/05 09:44:53;;;;;;;13.65;8.07;;;;;;;17.81;100.00;95785.78;5029683;28;20073;-50
2021/10/05 09:47:35;;;;;;;12.40;8.02;;;;;;;17.68;100.00;95783.88;5036735;28;20057;-51
2021/10/05 09:50:11;;;;;;;11.95;7.95;;;;;;;18.81;100.00;95785.53;5035000;28;20072;-52
2021/10/05 09:52:44;;;;;;;10.68;7.35;;;;;;;17.80;100.00;95776.13;5034249;28;20087;-51
2021/10/05 09:55:14;;;;;;;11.27;8.15;;;;;;;18.72;100.00;95768.94;5040483;28;20575;-57
2021/10/05 09:57:42;;;;;;;12.45;8.10;;;;;;;18.87;100.00;95760.66;5025212;28;20415;-57
2021/10/05 10:00:12;;;;;;;12.70;7.53;;;;;;;18.16;100.00;95773.00;5040619;28;20088;-58
2021/10/05 10:02:42;;;;;;;12.23;7.97;;;;;;;18.73;100.00;95775.94;5034704;28;20064;-56
2021/10/05 10:05:15;;;;;;;11.85;8.00;;;;;;;18.60;100.00;95775.94;5030211;28;20079;-52
2021/10/05 10:07:46;;;;;;;12.27;8.13;;;;;;;19.21;100.00;95781.63;5032790;28;20068;-53
2021/10/05 10:10:17;;;;;;;11.20;8.30;;;;;;;19.10;100.00;95768.94;5038509;28;20518;-51
2021/10/05 10:12:48;;;;;;;10.00;7.57;;;;;;;18.81;100.00;95781.00;5030067;28;20076;-55
2021/10/05 10:15:17;;;;;;;10.80;7.55;;;;;;;18.90;100.00;95768.25;5030635;28;20061;-54
2021/10/05 10:17:46;;;;;;;10.70;7.13;;;;;;;20.12;100.00;95766.91;5033450;28;20061;-54
2021/10/05 10:20:23;;;;;;;11.40;7.38;;;;;;;20.32;100.00;95756.00;5038902;28;20069;-54
2021/10/05 10:22:52;;;;;;;12.60;7.78;;;;;;;20.42;100.00;95774.22;5026326;28;20069;-50
2021/10/05 10:25:23;;;;;;;10.20;6.87;;;;;;;19.92;100.00;95761.78;5020663;28;20092;-58
2021/10/05 10:27:52;;;;;;;;;;;;;;;21.16;100.00;95739.28;5037292;28;20064;-51
2021/10/05 10:30:21;;;;;;;8.85;6.47;;;;;;;20.85;100.00;95731.28;5032205;28;19944;-51
2021/10/05 10:32:52;;;;;;;9.02;6.45;;;;;;;20.62;100.00;95732.00;5029069;28;20077;-51
2021/10/05 10:35:23;;;;;;;9.52;6.30;;;;;;;20.05;100.00;95735.91;5039882;28;20065;-53
2021/10/05 10:37:52;;;;;;;9.70;5.38;;;;;;;19.70;100.00;95735.63;5042138;28;20076;-54
2021/10/05 10:40:36;;;;;;;7.85;5.60;;;;;;;19.28;100.00;95740.66;5037628;28;20069;-55
2021/10/05 10:43:12;;;;;;;7.88;5.75;;;;;;;19.52;100.00;95737.19;5026316;28;20447;-55
2021/10/05 10:45:45;;;;;;;8.75;5.53;;;;;;;19.64;100.00;95740.81;5042958;28;20669;-51
2021/10/05 10:48:26;;;;;;;6.90;4.50;;;;;;;19.80;100.00;95744.78;5039169;28;20072;-56
2021/10/05 10:51:20;;;;;;;6.60;4.93;;;;;;;20.21;100.00;95747.91;5029767;28;20055;-53
2021/10/05 10:53:49;;;;;;;8.38;5.25;;;;;;;20.13;100.00;95752.50;5035738;28;20052;-55
2021/10/05 10:56:29;;;;;;;8.70;5.35;;;;;;;19.74;100.00;95755.56;5036392;28;20064;-50
2021/10/05 10:58:59;;;;;;;8.25;5.15;;;;;;;20.52;100.00;95757.69;5036012;28;20458;-52
2021/10/05 11:01:37;;;;;;;9.98;5.32;;;;;;;20.50;100.00;95762.41;5034515;28;20091;-53
2021/10/05 11:04:07;;;;;;;7.72;5.43;;;;;;;19.65;100.00;95774.56;5029425;28;20057;-52
2021/10/05 11:06:37;;;;;;;8.43;5.88;;;;;;;19.93;100.00;95784.00;5029648;28;20071;-54
2021/10/05 11:09:07;;;;;;;8.48;5.68;;;;;;;20.18;100.00;95791.19;5035402;28;20053;-49
2021/10/05 11:11:38;;;;;;;5.93;4.95;;;;;;;20.52;100.00;95789.81;5044476;28;20068;-54
2021/10/05 11:14:08;;;;;;;6.97;4.68;;;;;;;19.45;100.00;95789.91;5030595;28;20128;-54
2021/10/05 11:16:39;;;;;;;8.95;5.90;;;;;;;19.89;100.00;95793.50;5034475;28;20456;-53
2021/10/05 11:19:10;;;;;;;10.38;5.70;;;;;;;19.97;100.00;95785.19;5037886;28;20417;-50
2021/10/05 11:21:42;;;;;;;7.65;4.88;;;;;;;20.06;100.00;95789.22;5032788;28;20081;-58
2021/10/05 11:24:13;;;;;;;8.50;5.40;;;;;;;19.99;100.00;95784.97;5036174;28;20069;-50
2021/10/05 11:26:44;;;;;;;6.22;5.07;;;;;;;19.74;100.00;95793.81;5039928;28;20065;-50
2021/10/05 11:29:22;;;;;;;7.15;5.35;;;;;;;19.62;100.00;95791.00;5040419;28;20068;-51